sensor_id;sensor_type;location;lat;lon;timestamp;P1;durP1;ratioP1;P2;durP2;ratioP2
23596;SDS011;40226;50.874;4.394;2024-02-26T00:01:35;5.82;;;2.22;;
23596;SDS011;40226;50.874;4.394;2024-02-26T00:04:01;6.57;;;2.40;;
23596;SDS011;40226;50.874;4.394;2024-02-26T00:06:27;6.85;;;2.72;;
23596;SDS011;40226;50.874;4.394;2024-02-26T00:08:54;4.40;;;2.80;;
23596;SDS011;40226;50.874;4.394;2024-02-26T00:11:19;4.30;;;2.42;;
23596;SDS011;40226;50.874;4.394;2024-02-26T00:13:45;7.93;;;2.80;;
23596;SDS011;40226;50.874;4.394;2024-02-26T00:16:10;5.45;;;2.83;;
23596;SDS011;40226;50.874;4.394;2024-02-26T00:18:36;3.28;;;2.25;;
23596;SDS011;40226;50.874;4.394;2024-02-26T00:21:02;4.35;;;2.58;;
23596;SDS011;40226;50.874;4.394;2024-02-26T00:23:28;5.00;;;2.50;;
23596;SDS011;40226;50.874;4.394;2024-02-26T00:25:53;4.53;;;2.53;;
23596;SDS011;40226;50.874;4.394;2024-02-26T00:28:20;6.88;;;2.63;;
23596;SDS011;40226;50.874;4.394;2024-02-26T00:30:46;4.70;;;2.60;;
23596;SDS011;40226;50.874;4.394;2024-02-26T00:33:12;5.30;;;2.58;;
23596;SDS011;40226;50.874;4.394;2024-02-26T00:35:39;5.38;;;2.30;;
23596;SDS011;40226;50.874;4.394;2024-02-26T00:38:04;5.00;;;2.63;;
23596;SDS011;40226;50.874;4.394;2024-02-26T00:40:30;3.67;;;2.50;;
23596;SDS011;40226;50.874;4.394;2024-02-26T00:42:56;4.05;;;2.28;;
23596;SDS011;40226;50.874;4.394;2024-02-26T00:45:22;5.78;;;2.42;;
23596;SDS011;40226;50.874;4.394;2024-02-26T00:47:47;4.05;;;1.90;;
23596;SDS011;40226;50.874;4.394;2024-02-26T00:50:14;5.20;;;1.98;;
23596;SDS011;40226;50.874;4.394;2024-02-26T00:52:40;5.30;;;2.08;;
23596;SDS011;40226;50.874;4.394;2024-02-26T00:55:06;4.47;;;2.10;;
23596;SDS011;40226;50.874;4.394;2024-02-26T00:57:32;3.30;;;2.10;;
23596;SDS011;40226;50.874;4.394;2024-02-26T00:59:57;3.88;;;2.10;;
23596;SDS011;40226;50.874;4.394;2024-02-26T01:02:24;4.40;;;2.40;;
23596;SDS011;40226;50.874;4.394;2024-02-26T01:04:49;3.97;;;2.30;;
23596;SDS011;40226;50.874;4.394;2024-02-26T01:07:15;3.97;;;2.25;;
23596;SDS011;40226;50.874;4.394;2024-02-26T01:09:41;4.38;;;2.63;;
23596;SDS011;40226;50.874;4.394;2024-02-26T01:12:07;5.45;;;2.55;;
23596;SDS011;40226;50.874;4.394;2024-02-26T01:14:33;5.88;;;2.75;;
23596;SDS011;40226;50.874;4.394;2024-02-26T01:16:59;6.53;;;2.20;;
23596;SDS011;40226;50.874;4.394;2024-02-26T01:19:24;6.22;;;2.58;;
23596;SDS011;40226;50.874;4.394;2024-02-26T01:21:50;6.53;;;2.40;;
23596;SDS011;40226;50.874;4.394;2024-02-26T01:24:15;4.65;;;2.63;;
23596;SDS011;40226;50.874;4.394;2024-02-26T01:26:41;5.45;;;2.13;;
23596;SDS011;40226;50.874;4.394;2024-02-26T01:29:07;4.47;;;2.67;;
23596;SDS011;40226;50.874;4.394;2024-02-26T01:31:32;6.80;;;2.53;;
23596;SDS011;40226;50.874;4.394;2024-02-26T01:33:58;4.10;;;2.45;;
23596;SDS011;40226;50.874;4.394;2024-02-26T01:36:24;3.20;;;2.17;;
23596;SDS011;40226;50.874;4.394;2024-02-26T01:38:50;5.10;;;2.25;;
23596;SDS011;40226;50.874;4.394;2024-02-26T01:41:16;6.15;;;2.28;;
23596;SDS011;40226;50.874;4.394;2024-02-26T01:43:41;4.85;;;2.40;;
23596;SDS011;40226;50.874;4.394;2024-02-26T01:46:08;5.30;;;2.20;;
23596;SDS011;40226;50.874;4.394;2024-02-26T01:48:39;4.93;;;2.28;;
23596;SDS011;40226;50.874;4.394;2024-02-26T01:51:09;4.30;;;2.25;;
23596;SDS011;40226;50.874;4.394;2024-02-26T01:53:35;3.53;;;2.15;;
23596;SDS011;40226;50.874;4.394;2024-02-26T01:56:01;4.15;;;1.90;;
23596;SDS011;40226;50.874;4.394;2024-02-26T01:58:27;2.88;;;2.20;;
23596;SDS011;40226;50.874;4.394;2024-02-26T02:00:55;3.80;;;1.85;;
23596;SDS011;40226;50.874;4.394;2024-02-26T02:03:21;4.97;;;1.98;;
23596;SDS011;40226;50.874;4.394;2024-02-26T02:05:47;5.45;;;2.28;;
23596;SDS011;40226;50.874;4.394;2024-02-26T02:08:13;4.85;;;2.13;;
23596;SDS011;40226;50.874;4.394;2024-02-26T02:10:39;3.88;;;2.05;;
23596;SDS011;40226;50.874;4.394;2024-02-26T02:13:06;4.43;;;1.90;;
23596;SDS011;40226;50.874;4.394;2024-02-26T02:15:32;3.97;;;2.08;;
23596;SDS011;40226;50.874;4.394;2024-02-26T02:17:58;3.60;;;2.05;;
23596;SDS011;40226;50.874;4.394;2024-02-26T02:20:24;4.03;;;2.10;;
23596;SDS011;40226;50.874;4.394;2024-02-26T02:22:56;5.65;;;2.20;;
23596;SDS011;40226;50.874;4.394;2024-02-26T02:25:21;4.35;;;1.83;;
23596;SDS011;40226;50.874;4.394;2024-02-26T02:27:47;3.20;;;1.70;;
23596;SDS011;40226;50.874;4.394;2024-02-26T02:30:13;3.83;;;1.85;;
23596;SDS011;40226;50.874;4.394;2024-02-26T02:32:39;4.05;;;1.88;;
23596;SDS011;40226;50.874;4.394;2024-02-26T02:35:06;3.03;;;2.05;;
23596;SDS011;40226;50.874;4.394;2024-02-26T02:37:32;3.53;;;1.92;;
23596;SDS011;40226;50.874;4.394;2024-02-26T02:39:58;3.83;;;2.00;;
23596;SDS011;40226;50.874;4.394;2024-02-26T02:42:23;4.00;;;1.92;;
23596;SDS011;40226;50.874;4.394;2024-02-26T02:44:49;3.67;;;1.75;;
23596;SDS011;40226;50.874;4.394;2024-02-26T02:47:15;3.55;;;1.85;;
23596;SDS011;40226;50.874;4.394;2024-02-26T02:49:40;2.83;;;1.67;;
23596;SDS011;40226;50.874;4.394;2024-02-26T02:52:06;4.53;;;1.83;;
23596;SDS011;40226;50.874;4.394;2024-02-26T02:54:32;4.35;;;2.10;;
23596;SDS011;40226;50.874;4.394;2024-02-26T02:56:58;6.53;;;2.20;;
23596;SDS011;40226;50.874;4.394;2024-02-26T02:59:23;12.18;;;2.70;;
23596;SDS011;40226;50.874;4.394;2024-02-26T03:01:49;3.83;;;2.42;;
23596;SDS011;40226;50.874;4.394;2024-02-26T03:04:14;3.97;;;2.08;;
23596;SDS011;40226;50.874;4.394;2024-02-26T03:06:40;4.13;;;2.28;;
23596;SDS011;40226;50.874;4.394;2024-02-26T03:09:06;6.07;;;2.13;;
23596;SDS011;40226;50.874;4.394;2024-02-26T03:11:32;4.55;;;2.30;;
23596;SDS011;40226;50.874;4.394;2024-02-26T03:13:58;3.88;;;2.30;;
23596;SDS011;40226;50.874;4.394;2024-02-26T03:16:23;4.32;;;2.30;;
23596;SDS011;40226;50.874;4.394;2024-02-26T03:18:49;3.47;;;2.20;;
23596;SDS011;40226;50.874;4.394;2024-02-26T03:21:14;4.47;;;2.10;;
23596;SDS011;40226;50.874;4.394;2024-02-26T03:23:40;5.00;;;2.58;;
23596;SDS011;40226;50.874;4.394;2024-02-26T03:26:05;3.63;;;2.00;;
23596;SDS011;40226;50.874;4.394;2024-02-26T03:28:31;3.90;;;2.22;;
23596;SDS011;40226;50.874;4.394;2024-02-26T03:31:00;2.92;;;1.85;;
23596;SDS011;40226;50.874;4.394;2024-02-26T03:33:27;3.42;;;1.90;;
23596;SDS011;40226;50.874;4.394;2024-02-26T03:35:52;3.65;;;2.70;;
23596;SDS011;40226;50.874;4.394;2024-02-26T03:38:18;4.45;;;2.22;;
23596;SDS011;40226;50.874;4.394;2024-02-26T03:40:43;3.33;;;2.00;;
23596;SDS011;40226;50.874;4.394;2024-02-26T03:43:09;2.80;;;2.10;;
23596;SDS011;40226;50.874;4.394;2024-02-26T03:45:34;4.07;;;2.38;;
23596;SDS011;40226;50.874;4.394;2024-02-26T03:48:00;3.38;;;2.22;;
23596;SDS011;40226;50.874;4.394;2024-02-26T03:50:25;3.75;;;2.10;;
23596;SDS011;40226;50.874;4.394;2024-02-26T03:52:51;3.55;;;2.10;;
23596;SDS011;40226;50.874;4.394;2024-02-26T03:55:17;4.13;;;2.38;;
23596;SDS011;40226;50.874;4.394;2024-02-26T03:57:46;5.55;;;2.35;;
23596;SDS011;40226;50.874;4.394;2024-02-26T04:00:12;3.55;;;2.40;;
23596;SDS011;40226;50.874;4.394;2024-02-26T04:02:38;3.20;;;2.67;;
23596;SDS011;40226;50.874;4.394;2024-02-26T04:05:03;4.90;;;3.00;;
23596;SDS011;40226;50.874;4.394;2024-02-26T04:07:29;5.53;;;3.45;;
23596;SDS011;40226;50.874;4.394;2024-02-26T04:09:55;5.60;;;3.88;;
23596;SDS011;40226;50.874;4.394;2024-02-26T04:12:21;5.72;;;4.47;;
23596;SDS011;40226;50.874;4.394;2024-02-26T04:14:46;7.97;;;5.55;;
23596;SDS011;40226;50.874;4.394;2024-02-26T04:17:12;9.10;;;5.93;;
23596;SDS011;40226;50.874;4.394;2024-02-26T04:19:37;7.82;;;5.65;;
23596;SDS011;40226;50.874;4.394;2024-02-26T04:22:03;11.35;;;6.60;;
23596;SDS011;40226;50.874;4.394;2024-02-26T04:24:28;8.20;;;6.15;;
23596;SDS011;40226;50.874;4.394;2024-02-26T04:26:54;12.07;;;6.88;;
23596;SDS011;40226;50.874;4.394;2024-02-26T04:29:20;10.32;;;7.10;;
23596;SDS011;40226;50.874;4.394;2024-02-26T04:31:45;8.50;;;6.15;;
23596;SDS011;40226;50.874;4.394;2024-02-26T04:34:11;12.13;;;7.53;;
23596;SDS011;40226;50.874;4.394;2024-02-26T04:36:37;9.75;;;7.28;;
23596;SDS011;40226;50.874;4.394;2024-02-26T04:39:02;9.60;;;7.13;;
23596;SDS011;40226;50.874;4.394;2024-02-26T04:41:28;11.70;;;8.02;;
23596;SDS011;40226;50.874;4.394;2024-02-26T04:43:54;11.88;;;7.53;;
23596;SDS011;40226;50.874;4.394;2024-02-26T04:46:19;10.10;;;7.47;;
23596;SDS011;40226;50.874;4.394;2024-02-26T04:48:46;9.32;;;6.05;;
23596;SDS011;40226;50.874;4.394;2024-02-26T04:51:12;14.15;;;7.85;;
23596;SDS011;40226;50.874;4.394;2024-02-26T04:53:38;12.15;;;8.18;;
23596;SDS011;40226;50.874;4.394;2024-02-26T04:56:04;10.90;;;7.65;;
23596;SDS011;40226;50.874;4.394;2024-02-26T04:58:29;13.90;;;8.73;;
23596;SDS011;40226;50.874;4.394;2024-02-26T05:00:55;13.98;;;9.20;;
23596;SDS011;40226;50.874;4.394;2024-02-26T05:03:21;13.13;;;8.55;;
23596;SDS011;40226;50.874;4.394;2024-02-26T05:05:46;14.15;;;8.88;;
23596;SDS011;40226;50.874;4.394;2024-02-26T05:08:12;13.27;;;9.30;;
23596;SDS011;40226;50.874;4.394;2024-02-26T05:10:38;14.45;;;10.02;;
23596;SDS011;40226;50.874;4.394;2024-02-26T05:13:08;17.63;;;10.02;;
23596;SDS011;40226;50.874;4.394;2024-02-26T05:15:34;15.68;;;10.40;;
23596;SDS011;40226;50.874;4.394;2024-02-26T05:18:00;14.73;;;10.10;;
23596;SDS011;40226;50.874;4.394;2024-02-26T05:20:25;15.45;;;10.80;;
23596;SDS011;40226;50.874;4.394;2024-02-26T05:22:51;18.13;;;12.10;;
23596;SDS011;40226;50.874;4.394;2024-02-26T05:25:17;19.30;;;12.32;;
23596;SDS011;40226;50.874;4.394;2024-02-26T05:27:43;21.15;;;14.32;;
23596;SDS011;40226;50.874;4.394;2024-02-26T05:30:09;21.58;;;14.73;;
23596;SDS011;40226;50.874;4.394;2024-02-26T05:32:36;24.13;;;15.57;;
23596;SDS011;40226;50.874;4.394;2024-02-26T05:35:01;24.83;;;16.95;;
23596;SDS011;40226;50.874;4.394;2024-02-26T05:37:30;46.65;;;19.38;;
23596;SDS011;40226;50.874;4.394;2024-02-26T05:39:56;20.15;;;14.57;;
23596;SDS011;40226;50.874;4.394;2024-02-26T05:42:21;22.63;;;15.93;;
23596;SDS011;40226;50.874;4.394;2024-02-26T05:44:47;23.35;;;15.43;;
23596;SDS011;40226;50.874;4.394;2024-02-26T05:47:13;29.90;;;16.30;;
23596;SDS011;40226;50.874;4.394;2024-02-26T05:49:38;31.02;;;17.23;;
23596;SDS011;40226;50.874;4.394;2024-02-26T05:52:04;27.42;;;16.92;;
23596;SDS011;40226;50.874;4.394;2024-02-26T05:54:30;25.75;;;17.20;;
23596;SDS011;40226;50.874;4.394;2024-02-26T05:56:56;23.85;;;16.20;;
23596;SDS011;40226;50.874;4.394;2024-02-26T05:59:22;26.48;;;17.42;;
23596;SDS011;40226;50.874;4.394;2024-02-26T06:01:47;25.08;;;16.85;;
23596;SDS011;40226;50.874;4.394;2024-02-26T06:04:13;32.03;;;18.80;;
23596;SDS011;40226;50.874;4.394;2024-02-26T06:06:38;24.70;;;17.13;;
23596;SDS011;40226;50.874;4.394;2024-02-26T06:09:04;26.50;;;16.95;;
23596;SDS011;40226;50.874;4.394;2024-02-26T06:11:30;24.65;;;17.60;;
23596;SDS011;40226;50.874;4.394;2024-02-26T06:13:56;29.35;;;18.77;;
23596;SDS011;40226;50.874;4.394;2024-02-26T06:16:21;25.02;;;17.02;;
23596;SDS011;40226;50.874;4.394;2024-02-26T06:18:47;25.88;;;17.75;;
23596;SDS011;40226;50.874;4.394;2024-02-26T06:21:12;27.13;;;18.17;;
23596;SDS011;40226;50.874;4.394;2024-02-26T06:23:38;25.60;;;18.48;;
23596;SDS011;40226;50.874;4.394;2024-02-26T06:26:05;30.42;;;18.00;;
23596;SDS011;40226;50.874;4.394;2024-02-26T06:28:31;23.55;;;18.45;;
23596;SDS011;40226;50.874;4.394;2024-02-26T06:30:58;26.55;;;18.25;;
23596;SDS011;40226;50.874;4.394;2024-02-26T06:33:24;21.15;;;16.00;;
23596;SDS011;40226;50.874;4.394;2024-02-26T06:35:50;25.48;;;17.65;;
23596;SDS011;40226;50.874;4.394;2024-02-26T06:38:15;23.63;;;17.33;;
23596;SDS011;40226;50.874;4.394;2024-02-26T06:40:42;27.55;;;18.67;;
23596;SDS011;40226;50.874;4.394;2024-02-26T06:43:08;23.50;;;16.92;;
23596;SDS011;40226;50.874;4.394;2024-02-26T06:45:34;25.25;;;18.38;;
23596;SDS011;40226;50.874;4.394;2024-02-26T06:48:00;25.90;;;16.92;;
23596;SDS011;40226;50.874;4.394;2024-02-26T06:50:25;21.75;;;16.83;;
23596;SDS011;40226;50.874;4.394;2024-02-26T06:52:51;27.52;;;18.42;;
23596;SDS011;40226;50.874;4.394;2024-02-26T06:55:17;23.42;;;17.65;;
23596;SDS011;40226;50.874;4.394;2024-02-26T06:57:42;25.10;;;18.52;;
23596;SDS011;40226;50.874;4.394;2024-02-26T07:00:08;24.80;;;17.10;;
23596;SDS011;40226;50.874;4.394;2024-02-26T07:02:39;24.40;;;17.90;;
23596;SDS011;40226;50.874;4.394;2024-02-26T07:05:05;22.73;;;17.73;;
23596;SDS011;40226;50.874;4.394;2024-02-26T07:07:31;21.95;;;14.52;;
23596;SDS011;40226;50.874;4.394;2024-02-26T07:09:57;27.20;;;18.88;;
23596;SDS011;40226;50.874;4.394;2024-02-26T07:12:22;22.48;;;16.77;;
23596;SDS011;40226;50.874;4.394;2024-02-26T07:14:48;25.02;;;18.90;;
23596;SDS011;40226;50.874;4.394;2024-02-26T07:17:15;26.45;;;19.23;;
23596;SDS011;40226;50.874;4.394;2024-02-26T07:19:41;26.45;;;18.50;;
23596;SDS011;40226;50.874;4.394;2024-02-26T07:22:07;24.15;;;17.67;;
23596;SDS011;40226;50.874;4.394;2024-02-26T07:24:33;25.65;;;17.58;;
23596;SDS011;40226;50.874;4.394;2024-02-26T07:26:58;25.52;;;18.80;;
23596;SDS011;40226;50.874;4.394;2024-02-26T07:29:24;23.98;;;18.77;;
23596;SDS011;40226;50.874;4.394;2024-02-26T07:31:49;24.92;;;19.05;;
23596;SDS011;40226;50.874;4.394;2024-02-26T07:34:15;25.45;;;18.50;;
23596;SDS011;40226;50.874;4.394;2024-02-26T07:36:41;24.10;;;17.77;;
23596;SDS011;40226;50.874;4.394;2024-02-26T07:39:06;24.60;;;18.05;;
23596;SDS011;40226;50.874;4.394;2024-02-26T07:41:32;22.98;;;17.92;;
23596;SDS011;40226;50.874;4.394;2024-02-26T07:43:58;26.42;;;18.40;;
23596;SDS011;40226;50.874;4.394;2024-02-26T07:46:23;24.67;;;18.42;;
23596;SDS011;40226;50.874;4.394;2024-02-26T07:48:49;24.35;;;17.95;;
23596;SDS011;40226;50.874;4.394;2024-02-26T07:51:14;26.05;;;18.23;;
23596;SDS011;40226;50.874;4.394;2024-02-26T07:53:40;26.23;;;18.98;;
23596;SDS011;40226;50.874;4.394;2024-02-26T07:56:06;24.45;;;17.42;;
23596;SDS011;40226;50.874;4.394;2024-02-26T07:58:32;25.58;;;17.63;;
23596;SDS011;40226;50.874;4.394;2024-02-26T08:00:58;23.38;;;17.35;;
23596;SDS011;40226;50.874;4.394;2024-02-26T08:03:24;24.30;;;17.38;;
23596;SDS011;40226;50.874;4.394;2024-02-26T08:05:50;22.40;;;16.05;;
23596;SDS011;40226;50.874;4.394;2024-02-26T08:08:16;20.75;;;15.32;;
23596;SDS011;40226;50.874;4.394;2024-02-26T08:10:42;19.23;;;13.15;;
23596;SDS011;40226;50.874;4.394;2024-02-26T08:13:08;24.13;;;16.00;;
23596;SDS011;40226;50.874;4.394;2024-02-26T08:15:34;20.88;;;16.17;;
23596;SDS011;40226;50.874;4.394;2024-02-26T08:18:00;20.60;;;16.35;;
23596;SDS011;40226;50.874;4.394;2024-02-26T08:20:29;19.92;;;15.48;;
23596;SDS011;40226;50.874;4.394;2024-02-26T08:22:55;19.75;;;14.73;;
23596;SDS011;40226;50.874;4.394;2024-02-26T08:25:21;20.92;;;15.60;;
23596;SDS011;40226;50.874;4.394;2024-02-26T08:27:47;20.20;;;15.25;;
23596;SDS011;40226;50.874;4.394;2024-02-26T08:30:14;19.63;;;14.63;;
23596;SDS011;40226;50.874;4.394;2024-02-26T08:32:42;25.40;;;16.30;;
23596;SDS011;40226;50.874;4.394;2024-02-26T08:35:08;22.02;;;15.23;;
23596;SDS011;40226;50.874;4.394;2024-02-26T08:37:33;23.27;;;16.63;;
23596;SDS011;40226;50.874;4.394;2024-02-26T08:39:59;19.75;;;15.70;;
23596;SDS011;40226;50.874;4.394;2024-02-26T08:42:25;19.25;;;14.43;;
23596;SDS011;40226;50.874;4.394;2024-02-26T08:44:50;20.45;;;15.63;;
23596;SDS011;40226;50.874;4.394;2024-02-26T08:47:16;20.00;;;15.50;;
23596;SDS011;40226;50.874;4.394;2024-02-26T08:49:45;20.10;;;15.20;;
23596;SDS011;40226;50.874;4.394;2024-02-26T08:52:11;21.45;;;15.30;;
23596;SDS011;40226;50.874;4.394;2024-02-26T08:54:37;20.45;;;15.18;;
23596;SDS011;40226;50.874;4.394;2024-02-26T08:57:02;20.23;;;15.15;;
23596;SDS011;40226;50.874;4.394;2024-02-26T08:59:28;18.95;;;13.93;;
23596;SDS011;40226;50.874;4.394;2024-02-26T09:01:54;21.33;;;15.07;;
23596;SDS011;40226;50.874;4.394;2024-02-26T09:04:20;21.33;;;14.32;;
23596;SDS011;40226;50.874;4.394;2024-02-26T09:06:46;21.05;;;13.88;;
23596;SDS011;40226;50.874;4.394;2024-02-26T09:09:12;14.98;;;11.52;;
23596;SDS011;40226;50.874;4.394;2024-02-26T09:11:37;19.15;;;14.00;;
23596;SDS011;40226;50.874;4.394;2024-02-26T09:14:03;18.38;;;13.32;;
23596;SDS011;40226;50.874;4.394;2024-02-26T09:16:29;17.63;;;12.82;;
23596;SDS011;40226;50.874;4.394;2024-02-26T09:18:55;16.45;;;13.23;;
23596;SDS011;40226;50.874;4.394;2024-02-26T09:21:21;17.38;;;13.63;;
23596;SDS011;40226;50.874;4.394;2024-02-26T09:23:51;16.58;;;12.98;;
23596;SDS011;40226;50.874;4.394;2024-02-26T09:26:17;19.65;;;13.48;;
23596;SDS011;40226;50.874;4.394;2024-02-26T09:28:44;23.35;;;15.32;;
23596;SDS011;40226;50.874;4.394;2024-02-26T09:31:09;21.80;;;14.18;;
23596;SDS011;40226;50.874;4.394;2024-02-26T09:33:35;15.48;;;12.10;;
23596;SDS011;40226;50.874;4.394;2024-02-26T09:36:01;18.23;;;13.70;;
23596;SDS011;40226;50.874;4.394;2024-02-26T09:38:27;19.77;;;14.93;;
23596;SDS011;40226;50.874;4.394;2024-02-26T09:40:53;19.40;;;14.07;;
23596;SDS011;40226;50.874;4.394;2024-02-26T09:43:21;19.52;;;14.43;;
23596;SDS011;40226;50.874;4.394;2024-02-26T09:45:50;19.27;;;12.10;;
23596;SDS011;40226;50.874;4.394;2024-02-26T09:48:18;19.25;;;13.68;;
23596;SDS011;40226;50.874;4.394;2024-02-26T09:50:45;18.95;;;14.30;;
23596;SDS011;40226;50.874;4.394;2024-02-26T09:53:11;16.73;;;12.30;;
23596;SDS011;40226;50.874;4.394;2024-02-26T09:55:39;17.73;;;13.85;;
23596;SDS011;40226;50.874;4.394;2024-02-26T09:58:05;18.40;;;13.55;;
23596;SDS011;40226;50.874;4.394;2024-02-26T10:00:32;16.08;;;12.23;;
23596;SDS011;40226;50.874;4.394;2024-02-26T10:03:02;18.42;;;12.85;;
23596;SDS011;40226;50.874;4.394;2024-02-26T10:05:30;18.42;;;12.95;;
23596;SDS011;40226;50.874;4.394;2024-02-26T10:07:58;17.80;;;12.93;;
23596;SDS011;40226;50.874;4.394;2024-02-26T10:10:26;16.70;;;12.93;;
23596;SDS011;40226;50.874;4.394;2024-02-26T10:12:56;17.85;;;13.27;;
23596;SDS011;40226;50.874;4.394;2024-02-26T10:15:23;17.38;;;13.20;;
23596;SDS011;40226;50.874;4.394;2024-02-26T10:17:49;18.00;;;12.75;;
23596;SDS011;40226;50.874;4.394;2024-02-26T10:20:18;16.25;;;12.32;;
23596;SDS011;40226;50.874;4.394;2024-02-26T10:22:46;17.38;;;13.02;;
23596;SDS011;40226;50.874;4.394;2024-02-26T10:25:12;17.33;;;11.93;;
23596;SDS011;40226;50.874;4.394;2024-02-26T10:27:39;17.55;;;12.38;;
23596;SDS011;40226;50.874;4.394;2024-02-26T10:30:16;15.18;;;11.75;;
23596;SDS011;40226;50.874;4.394;2024-02-26T10:32:43;17.80;;;12.27;;
23596;SDS011;40226;50.874;4.394;2024-02-26T10:35:09;14.25;;;12.05;;
23596;SDS011;40226;50.874;4.394;2024-02-26T10:37:35;15.48;;;11.45;;
23596;SDS011;40226;50.874;4.394;2024-02-26T10:40:01;15.45;;;10.45;;
23596;SDS011;40226;50.874;4.394;2024-02-26T10:42:27;13.77;;;10.55;;
23596;SDS011;40226;50.874;4.394;2024-02-26T10:44:52;13.05;;;10.63;;
23596;SDS011;40226;50.874;4.394;2024-02-26T10:47:18;13.60;;;10.63;;
23596;SDS011;40226;50.874;4.394;2024-02-26T10:49:47;13.18;;;10.15;;
23596;SDS011;40226;50.874;4.394;2024-02-26T10:52:13;13.40;;;10.02;;
23596;SDS011;40226;50.874;4.394;2024-02-26T10:54:40;14.40;;;10.20;;
23596;SDS011;40226;50.874;4.394;2024-02-26T10:57:08;11.52;;;9.63;;
23596;SDS011;40226;50.874;4.394;2024-02-26T10:59:34;11.77;;;8.88;;
23596;SDS011;40226;50.874;4.394;2024-02-26T11:02:01;12.30;;;9.82;;
23596;SDS011;40226;50.874;4.394;2024-02-26T11:04:27;9.77;;;7.60;;
23596;SDS011;40226;50.874;4.394;2024-02-26T11:06:56;11.73;;;9.13;;
23596;SDS011;40226;50.874;4.394;2024-02-26T11:09:22;9.93;;;7.80;;
23596;SDS011;40226;50.874;4.394;2024-02-26T11:11:49;9.82;;;7.72;;
23596;SDS011;40226;50.874;4.394;2024-02-26T11:14:19;10.35;;;7.05;;
23596;SDS011;40226;50.874;4.394;2024-02-26T11:16:46;13.93;;;7.63;;
23596;SDS011;40226;50.874;4.394;2024-02-26T11:19:14;7.50;;;6.35;;
23596;SDS011;40226;50.874;4.394;2024-02-26T11:21:41;7.75;;;5.82;;
23596;SDS011;40226;50.874;4.394;2024-02-26T11:24:11;8.80;;;6.07;;
23596;SDS011;40226;50.874;4.394;2024-02-26T11:26:43;9.05;;;5.82;;
23596;SDS011;40226;50.874;4.394;2024-02-26T11:29:16;8.98;;;6.15;;
23596;SDS011;40226;50.874;4.394;2024-02-26T11:31:46;9.20;;;5.88;;
23596;SDS011;40226;50.874;4.394;2024-02-26T11:34:12;7.53;;;6.00;;
23596;SDS011;40226;50.874;4.394;2024-02-26T11:36:38;7.57;;;5.63;;
23596;SDS011;40226;50.874;4.394;2024-02-26T11:39:04;7.60;;;6.00;;
23596;SDS011;40226;50.874;4.394;2024-02-26T11:41:30;8.68;;;6.07;;
23596;SDS011;40226;50.874;4.394;2024-02-26T11:44:02;8.13;;;6.10;;
23596;SDS011;40226;50.874;4.394;2024-02-26T11:46:32;7.47;;;5.47;;
23596;SDS011;40226;50.874;4.394;2024-02-26T11:49:16;8.40;;;6.28;;
23596;SDS011;40226;50.874;4.394;2024-02-26T11:51:52;8.60;;;5.95;;
23596;SDS011;40226;50.874;4.394;2024-02-26T11:54:38;9.80;;;6.95;;
23596;SDS011;40226;50.874;4.394;2024-02-26T11:57:04;9.27;;;6.53;;
23596;SDS011;40226;50.874;4.394;2024-02-26T11:59:48;10.00;;;6.85;;
23596;SDS011;40226;50.874;4.394;2024-02-26T12:05:09;6.82;;;6.13;;
23596;SDS011;40226;50.874;4.394;2024-02-26T12:07:42;10.35;;;7.38;;
23596;SDS011;40226;50.874;4.394;2024-02-26T12:10:17;11.00;;;7.10;;
23596;SDS011;40226;50.874;4.394;2024-02-26T12:13:12;10.40;;;8.32;;
23596;SDS011;40226;50.874;4.394;2024-02-26T12:15:41;12.52;;;8.30;;
23596;SDS011;40226;50.874;4.394;2024-02-26T12:18:26;10.00;;;6.85;;
23596;SDS011;40226;50.874;4.394;2024-02-26T12:21:01;9.98;;;7.18;;
23596;SDS011;40226;50.874;4.394;2024-02-26T12:25:58;11.15;;;7.40;;
23596;SDS011;40226;50.874;4.394;2024-02-26T12:28:28;12.23;;;8.30;;
23596;SDS011;40226;50.874;4.394;2024-02-26T12:30:54;11.38;;;8.20;;
23596;SDS011;40226;50.874;4.394;2024-02-26T12:33:20;10.20;;;8.02;;
23596;SDS011;40226;50.874;4.394;2024-02-26T12:35:45;9.70;;;8.07;;
23596;SDS011;40226;50.874;4.394;2024-02-26T12:38:14;8.25;;;6.72;;
23596;SDS011;40226;50.874;4.394;2024-02-26T12:40:40;10.95;;;8.10;;
23596;SDS011;40226;50.874;4.394;2024-02-26T12:43:05;11.43;;;8.07;;
23596;SDS011;40226;50.874;4.394;2024-02-26T12:45:31;10.90;;;8.57;;
23596;SDS011;40226;50.874;4.394;2024-02-26T12:47:58;10.45;;;8.10;;
23596;SDS011;40226;50.874;4.394;2024-02-26T12:50:24;11.63;;;8.55;;
23596;SDS011;40226;50.874;4.394;2024-02-26T12:52:50;12.70;;;8.73;;
23596;SDS011;40226;50.874;4.394;2024-02-26T12:55:20;12.30;;;10.57;;
23596;SDS011;40226;50.874;4.394;2024-02-26T12:57:46;10.65;;;8.90;;
23596;SDS011;40226;50.874;4.394;2024-02-26T13:00:15;12.05;;;8.57;;
23596;SDS011;40226;50.874;4.394;2024-02-26T13:02:43;10.75;;;8.40;;
23596;SDS011;40226;50.874;4.394;2024-02-26T13:05:10;11.40;;;9.00;;
23596;SDS011;40226;50.874;4.394;2024-02-26T13:07:43;11.73;;;8.75;;
23596;SDS011;40226;50.874;4.394;2024-02-26T13:10:09;10.23;;;8.30;;
23596;SDS011;40226;50.874;4.394;2024-02-26T13:12:45;12.43;;;8.60;;
23596;SDS011;40226;50.874;4.394;2024-02-26T13:15:15;11.75;;;9.07;;
23596;SDS011;40226;50.874;4.394;2024-02-26T13:17:42;12.05;;;8.75;;
23596;SDS011;40226;50.874;4.394;2024-02-26T13:20:11;10.57;;;8.30;;
23596;SDS011;40226;50.874;4.394;2024-02-26T13:22:38;12.95;;;9.20;;
23596;SDS011;40226;50.874;4.394;2024-02-26T13:25:04;11.23;;;8.65;;
23596;SDS011;40226;50.874;4.394;2024-02-26T13:27:32;12.05;;;9.02;;
23596;SDS011;40226;50.874;4.394;2024-02-26T13:30:05;9.75;;;7.95;;
23596;SDS011;40226;50.874;4.394;2024-02-26T13:32:38;11.90;;;9.00;;
23596;SDS011;40226;50.874;4.394;2024-02-26T13:35:08;12.27;;;9.70;;
23596;SDS011;40226;50.874;4.394;2024-02-26T13:37:38;12.68;;;10.05;;
23596;SDS011;40226;50.874;4.394;2024-02-26T13:40:08;13.30;;;9.90;;
23596;SDS011;40226;50.874;4.394;2024-02-26T13:42:35;13.95;;;10.35;;
23596;SDS011;40226;50.874;4.394;2024-02-26T13:45:02;13.48;;;10.30;;
23596;SDS011;40226;50.874;4.394;2024-02-26T13:47:28;15.93;;;10.88;;
23596;SDS011;40226;50.874;4.394;2024-02-26T13:49:53;16.40;;;11.00;;
23596;SDS011;40226;50.874;4.394;2024-02-26T13:52:19;14.27;;;11.20;;
23596;SDS011;40226;50.874;4.394;2024-02-26T13:54:45;16.30;;;11.32;;
23596;SDS011;40226;50.874;4.394;2024-02-26T13:57:11;18.83;;;11.73;;
23596;SDS011;40226;50.874;4.394;2024-02-26T13:59:37;16.13;;;12.05;;
23596;SDS011;40226;50.874;4.394;2024-02-26T14:02:06;16.08;;;12.50;;
23596;SDS011;40226;50.874;4.394;2024-02-26T14:04:32;17.35;;;12.13;;
23596;SDS011;40226;50.874;4.394;2024-02-26T14:06:57;17.60;;;12.48;;
23596;SDS011;40226;50.874;4.394;2024-02-26T14:09:23;16.85;;;12.07;;
23596;SDS011;40226;50.874;4.394;2024-02-26T14:11:49;16.80;;;11.93;;
23596;SDS011;40226;50.874;4.394;2024-02-26T14:14:14;17.77;;;11.55;;
23596;SDS011;40226;50.874;4.394;2024-02-26T14:16:40;16.98;;;11.98;;
23596;SDS011;40226;50.874;4.394;2024-02-26T14:19:05;17.55;;;11.50;;
23596;SDS011;40226;50.874;4.394;2024-02-26T14:21:31;16.45;;;12.35;;
23596;SDS011;40226;50.874;4.394;2024-02-26T14:23:57;17.85;;;12.32;;
23596;SDS011;40226;50.874;4.394;2024-02-26T14:26:23;19.60;;;12.38;;
23596;SDS011;40226;50.874;4.394;2024-02-26T14:28:48;19.30;;;12.43;;
23596;SDS011;40226;50.874;4.394;2024-02-26T14:31:17;19.02;;;12.80;;
23596;SDS011;40226;50.874;4.394;2024-02-26T14:33:42;19.35;;;12.93;;
23596;SDS011;40226;50.874;4.394;2024-02-26T14:36:08;21.38;;;14.02;;